Flight Track Log - Related Links

Times and Time Zones

All times are in EDT time to prevent confusion due to time zone crossing. See the N721ST flight status page for this flight to view local times or setup timezone preferences in your user account.

Time Position Orientation Groundspeed Altitude Reporting Facility
EDT Latitude Longitude Course Direction KTS MPH feet Rate Location/Type
Wed 09:26:28 PM 32.7500 -96.7333 151° Southeast 271 312 4,900  Level Dallas / Fort Worth TRACON
Wed 09:27:23 PM 32.7000 -96.7000 151° Southeast 269 310 5,500 1,751 Climbing Dallas / Fort Worth TRACON
Wed 09:29:33 PM 32.5503 -96.8219 214° Southwest 296 341 10,300 2,242 Climbing Fort Worth Center
Wed 09:30:33 PM 32.4814 -96.8692 210° Southwest 318 366 12,600 2,350 Climbing Fort Worth Center
Wed 09:31:33 PM 32.3794 -96.8992 194° South 335 386 15,000 2,100 Climbing Fort Worth Center
Wed 09:32:33 PM 32.2958 -96.9267 196° South 348 400 16,800 1,900 Climbing Fort Worth Center
Wed 09:33:33 PM 32.1978 -96.9567 195° South 362 417 18,800 1,800 Climbing Fort Worth Center
Wed 09:34:33 PM 32.0958 -96.9917 196° South 369 425 20,400 1,700 Climbing Fort Worth Center
Wed 09:35:33 PM 31.9936 -97.0239 195° South 381 438 22,200 1,650 Climbing Fort Worth Center
Wed 09:36:33 PM 31.8808 -97.0611 196° South 381 438 23,700 1,300 Climbing Fort Worth Center
Wed 09:37:33 PM 31.7767 -97.0933 195° South 381 438 24,800 1,050 Climbing Fort Worth Center
Wed 09:38:33 PM 31.6703 -97.1278 195° South 398 458 25,800 600 Climbing Fort Worth Center
Wed 09:39:33 PM 31.5575 -97.1597 194° South 403 464 26,000 96 Climbing Fort Worth Center
Wed 09:40:38 PM 31.4397 -97.1972 195° South 431 496 26,000  Level Houston Center
Wed 09:41:39 PM 31.3186 -97.2361 195° South 443 510 26,000  Level Houston Center
Wed 09:42:41 PM 31.1969 -97.2750 195° South 448 516 26,000  Level Houston Center
Wed 09:43:42 PM 31.0750 -97.3147 196° South 452 520 26,000  Level Houston Center
Wed 09:44:43 PM 30.9356 -97.3567 194° South 462 532 26,000  Level Houston Center
Wed 09:45:44 PM 30.8083 -97.3969 195° South 466 536 26,000  Level Houston Center
Wed 09:46:46 PM 30.6850 -97.4353 195° South 457 526 26,000 -537 Level Houston Center
Wed 09:47:47 PM 30.5597 -97.4739 195° South 460 529 24,900 -1,672 Descending Houston Center
Wed 09:48:48 PM 30.4261 -97.5158 195° South 487 560 22,600 -2,262 Descending Houston Center
Wed 09:49:49 PM 30.3078 -97.5803 205° Southwest 468 539 20,300 -2,262 Descending Houston Center
Wed 09:50:50 PM 30.1983 -97.6567 211° Southwest 450 518 18,000 -2,098 Descending Houston Center
Wed 09:51:52 PM 30.0917 -97.7283 210° Southwest 442 509 16,000 -2,098 Descending Houston Center
Wed 09:52:53 PM 29.9772 -97.8069 211° Southwest 432 497 13,700 -1,967 Descending Houston Center
Wed 09:53:54 PM 29.8872 -97.8894 218° Southwest 418 481 12,000 -1,707 Descending Houston Center
Wed 09:54:56 PM 29.8375 -98.0050 244° Southwest 402 463 10,200 -1,756 Descending Houston Center
Wed 09:55:57 PM 29.7961 -98.1028 244° Southwest 311 358 8,400 -1,721 Descending Houston Center
Wed 09:56:58 PM 29.7606 -98.1856 244° Southwest 290 334 6,700 -1,180 Descending Houston Center
Wed 09:57:59 PM 29.7267 -98.2658 244° Southwest 280 322 6,000 -488 Descending Houston Center
Wed 09:59:01 PM 29.7019 -98.3539 252° West 266 306 5,700 -1,122 Descending Houston Center
Wed 10:00:02 PM 29.6892 -98.4358 260° West 262 302 3,700 -1,328 Descending Houston Center
Wed 10:01:03 PM 29.6781 -98.5231 262° West 276 318 3,000 -341 Descending Houston Center
Wed 10:02:05 PM 29.6564 -98.5839 248° West 202 232 3,000 -195 Level Houston Center
Wed 10:03:06 PM 29.6111 -98.5614 157° South 178 205 2,600 -541 Descending Houston Center
Wed 10:04:07 PM 29.5789 -98.5319 142° Southeast 154 177 1,900 -689 Descending Houston Center
Wed 10:05:08 PM 29.5528 -98.4975 131° Southeast 135 155 1,200 -537 Descending Houston Center
Wed 10:06:10 PM 29.5344 -98.4725 130° Southeast 126 145 800 -387 Descending Houston Center
Wed 10:08:00 PM 29.5333 -98.4667 16° North  Level FlightAware Approximate

Login

Don't have an account? Register now (free) for customized features, flight alerts, and more!